Rechercher aéroport 
image banner adimage banner adimage banner ad
image banner ad

5CL2 - St Louise Rgnl Hospital

Situé à Gilroy, United States

ICAO - 5CL2, IATA -

Données fournies par Airmate  

Information générale

Coordonnées: N37°2'8" W121°34'16"
Élévation : 214 feet MSL.
Variation magnétique : 15° East
Voir autres Aéroports à California

Données opérationnelles

Special qualification required
Heure actuelle UTC:
Heure actuelle locale:
Météo à : KCVH - Hollister Muni ( 21 km )
METAR: KCVH 270635Z AUTO 00000KT 10SM CLR 16/12 A2997 RMK A01
Voir NOTAMs / SUP AIP / TFR affectant cet aéroport [VIEW]
Fréquences de communication: [VIEW]

Pistes:

Coordonnées de l'aéroport

Adresse: Gilroy United States

Vue satellite de 5CL2